createdAt,value
2017-02-21T00:00:13.496Z,999.99
2017-02-21T00:01:25.851Z,999.93
2017-02-21T00:02:38.913Z,1000
2017-02-21T00:03:52.000Z,999.94
2017-02-21T00:05:05.072Z,1000.01
2017-02-21T00:06:17.347Z,1000.07
2017-02-21T00:07:30.398Z,999.95
2017-02-21T00:08:43.111Z,999.97
2017-02-21T00:09:56.155Z,999.93
2017-02-21T00:11:08.852Z,999.99
2017-02-21T00:12:21.578Z,999.99
2017-02-21T00:13:34.643Z,1000.02
2017-02-21T00:14:47.969Z,1000.06
2017-02-21T00:16:01.060Z,1000.05
2017-02-21T00:17:14.113Z,999.99
2017-02-21T00:18:26.829Z,999.96
2017-02-21T00:19:39.500Z,999.95
2017-02-21T00:20:52.573Z,1000.03
2017-02-21T00:22:05.643Z,1000.01
2017-02-21T00:23:18.716Z,999.95
2017-02-21T00:24:31.786Z,999.99
2017-02-21T00:25:44.817Z,999.99
2017-02-21T00:26:57.122Z,1000.06
2017-02-21T00:28:10.225Z,999.99
2017-02-21T00:29:22.497Z,1000
2017-02-21T00:30:35.631Z,1000.04
2017-02-21T00:31:48.714Z,999.98
2017-02-21T00:33:01.781Z,999.99
2017-02-21T00:34:14.852Z,1000.04
2017-02-21T00:35:27.548Z,1000.01
2017-02-21T00:36:40.632Z,1000.06
2017-02-21T00:37:53.713Z,1000.04
2017-02-21T00:39:06.791Z,999.95
2017-02-21T00:40:19.523Z,999.93
2017-02-21T00:41:32.582Z,999.99
2017-02-21T00:42:45.644Z,999.89
2017-02-21T00:43:58.711Z,999.91
2017-02-21T00:45:11.745Z,999.92
2017-02-21T00:46:24.814Z,999.96
2017-02-21T00:47:37.876Z,999.95
2017-02-21T00:48:50.557Z,1000.03
2017-02-21T00:50:03.263Z,1000.03
2017-02-21T00:51:15.568Z,1000.01
2017-02-21T00:52:28.468Z,1000.05
2017-02-21T00:53:41.532Z,1000.03
2017-02-21T00:54:54.628Z,1000.05
2017-02-21T00:56:07.704Z,1000.14
2017-02-21T00:57:20.373Z,1000.04
2017-02-21T00:58:33.458Z,1000.09
2017-02-21T00:59:46.508Z,1000.06
2017-02-21T01:00:59.607Z,1000.07
2017-02-21T01:02:12.679Z,1000.03
2017-02-21T01:03:25.379Z,1000
2017-02-21T01:04:38.076Z,1000.05
2017-02-21T01:05:51.149Z,1000.08
2017-02-21T01:07:04.241Z,1000.08
2017-02-21T01:08:17.307Z,1000.08
2017-02-21T01:09:30.357Z,1000.15
2017-02-21T01:10:43.458Z,1000.15
2017-02-21T01:11:56.127Z,1000.1
2017-02-21T01:13:08.812Z,1000.07
2017-02-21T01:14:21.517Z,1000.08
2017-02-21T01:15:34.575Z,1000.11
2017-02-21T01:16:47.650Z,1000.03
2017-02-21T01:18:00.730Z,1000.2
2017-02-21T01:19:13.448Z,1000.13
2017-02-21T01:20:26.118Z,1000.13
2017-02-21T01:21:39.187Z,1000.1
2017-02-21T01:22:51.912Z,1000.02
2017-02-21T01:24:04.607Z,1000
2017-02-21T01:25:17.500Z,1000.02
2017-02-21T01:26:30.599Z,999.96
2017-02-21T01:27:43.648Z,999.93
2017-02-21T01:28:56.741Z,999.93
2017-02-21T01:30:09.462Z,999.97
2017-02-21T01:31:22.579Z,1000.03
2017-02-21T01:32:35.634Z,999.97
2017-02-21T01:33:48.351Z,1000.05
2017-02-21T01:35:00.674Z,1000.07
2017-02-21T01:36:13.766Z,1000.1
2017-02-21T01:37:26.484Z,1000.23
2017-02-21T01:38:39.185Z,1000.18
2017-02-21T01:39:51.867Z,1000.25
2017-02-21T01:41:04.930Z,1000.24
2017-02-21T01:42:17.620Z,1000.3
2017-02-21T01:43:30.663Z,1000.26
2017-02-21T01:44:43.713Z,1000.21
2017-02-21T01:45:56.772Z,1000.22
2017-02-21T01:47:10.179Z,1000.21
2017-02-21T01:48:22.852Z,1000.26
2017-02-21T01:49:35.546Z,1000.3
2017-02-21T01:50:48.591Z,1000.32
2017-02-21T01:52:01.319Z,1000.32
2017-02-21T01:53:13.272Z,1000.26
2017-02-21T01:54:25.955Z,1000.32
2017-02-21T01:55:38.657Z,1000.32
2017-02-21T01:56:51.747Z,1000.33
2017-02-21T01:58:04.820Z,1000.36
2017-02-21T01:59:17.906Z,1000.32
2017-02-21T02:00:30.985Z,1000.35
2017-02-21T02:01:44.055Z,1000.33
2017-02-21T02:02:56.744Z,1000.36
2017-02-21T02:04:09.802Z,1000.36
2017-02-21T02:05:22.882Z,1000.33
2017-02-21T02:06:35.965Z,1000.16
2017-02-21T02:07:49.036Z,1000.18
2017-02-21T02:09:02.101Z,1000.2
2017-02-21T02:10:15.204Z,1000.28
2017-02-21T02:11:28.293Z,1000.26
2017-02-21T02:12:40.985Z,1000.3
2017-02-21T02:13:53.663Z,1000.19
2017-02-21T02:15:06.756Z,1000.13
2017-02-21T02:16:19.843Z,1000.16
2017-02-21T02:17:32.930Z,1000.12
2017-02-21T02:18:46.044Z,1000.14
2017-02-21T02:19:59.369Z,1000.11
2017-02-21T02:21:12.111Z,1000.14
2017-02-21T02:22:25.181Z,1000.13
2017-02-21T02:23:38.276Z,1000.15
2017-02-21T02:24:50.547Z,1000.12
2017-02-21T02:26:03.245Z,1000.12
2017-02-21T02:27:15.523Z,1000.16
2017-02-21T02:28:28.578Z,1000.17
2017-02-21T02:29:41.252Z,1000.21
2017-02-21T02:30:54.360Z,1000.25
2017-02-21T02:32:07.427Z,1000.21
2017-02-21T02:33:20.122Z,1000.25
2017-02-21T02:34:33.171Z,1000.29
2017-02-21T02:35:46.252Z,1000.25
2017-02-21T02:36:59.310Z,1000.23
2017-02-21T02:38:12.383Z,1000.23
2017-02-21T02:39:25.431Z,1000.3
2017-02-21T02:40:38.522Z,1000.32
2017-02-21T02:41:51.619Z,1000.4
2017-02-21T02:43:04.753Z,1000.34
2017-02-21T02:44:17.812Z,1000.4
2017-02-21T02:45:30.897Z,1000.36
2017-02-21T02:46:43.554Z,1000.44
2017-02-21T02:47:56.240Z,1000.42
2017-02-21T02:49:09.296Z,1000.35
2017-02-21T02:50:22.438Z,1000.33
2017-02-21T02:51:35.542Z,1000.33
2017-02-21T02:52:48.202Z,1000.32
2017-02-21T02:54:00.551Z,1000.31
2017-02-21T02:55:13.249Z,1000.28
2017-02-21T02:56:26.311Z,1000.35
2017-02-21T02:57:39.007Z,1000.34
2017-02-21T02:58:52.057Z,1000.41
2017-02-21T03:00:05.182Z,1000.4
2017-02-21T03:01:18.248Z,1000.37
2017-02-21T03:02:31.297Z,1000.27
2017-02-21T03:03:44.369Z,1000.3
2017-02-21T03:04:57.412Z,1000.3
2017-02-21T03:06:10.486Z,1000.34
2017-02-21T03:07:23.548Z,1000.36
2017-02-21T03:08:36.615Z,1000.32
2017-02-21T03:09:49.687Z,1000.31
2017-02-21T03:11:02.819Z,1000.34
2017-02-21T03:12:15.536Z,1000.36
2017-02-21T03:13:28.614Z,1000.28
2017-02-21T03:14:41.708Z,1000.27
2017-02-21T03:15:54.802Z,1000.2
2017-02-21T03:17:07.876Z,1000.27
2017-02-21T03:18:20.915Z,1000.28
2017-02-21T03:19:34.015Z,1000.24
2017-02-21T03:20:47.064Z,1000.24
2017-02-21T03:22:00.134Z,1000.21
2017-02-21T03:23:13.218Z,1000.23
2017-02-21T03:24:26.347Z,1000.23
2017-02-21T03:25:39.416Z,1000.21
2017-02-21T03:26:52.486Z,1000.23
2017-02-21T03:28:05.186Z,1000.23
2017-02-21T03:29:18.281Z,1000.25
2017-02-21T03:30:31.427Z,1000.22
2017-02-21T03:31:44.116Z,1000.23
2017-02-21T03:32:57.161Z,1000.2
2017-02-21T03:34:10.232Z,1000.26
2017-02-21T03:35:22.932Z,1000.2
2017-02-21T03:36:35.978Z,1000.21
2017-02-21T03:37:48.280Z,1000.21
2017-02-21T03:39:01.349Z,1000.24
2017-02-21T03:40:14.024Z,1000.21
2017-02-21T03:41:27.090Z,1000.17
2017-02-21T03:42:39.777Z,1000.18
2017-02-21T03:43:52.069Z,1000.19
2017-02-21T03:45:04.774Z,1000.26
2017-02-21T03:46:17.450Z,1000.34
2017-02-21T03:47:30.523Z,1000.34
2017-02-21T03:48:43.638Z,1000.34
2017-02-21T03:49:56.760Z,1000.32
2017-02-21T03:51:09.807Z,1000.33
2017-02-21T03:52:22.882Z,1000.35
2017-02-21T03:53:35.596Z,1000.37
2017-02-21T03:54:48.258Z,1000.36
2017-02-21T03:56:01.358Z,1000.44
2017-02-21T03:57:14.037Z,1000.43
2017-02-21T03:58:27.108Z,1000.37
2017-02-21T03:59:40.168Z,1000.37
2017-02-21T04:00:53.224Z,1000.38
2017-02-21T04:02:06.385Z,1000.4
2017-02-21T04:03:19.419Z,1000.43
2017-02-21T04:04:32.488Z,1000.49
2017-02-21T04:05:45.536Z,1000.47
2017-02-21T04:06:58.580Z,1000.5
2017-02-21T04:08:11.224Z,1000.48
2017-02-21T04:09:23.915Z,1000.51
2017-02-21T04:10:36.980Z,1000.53
2017-02-21T04:11:49.288Z,1000.53
2017-02-21T04:13:02.400Z,1000.49
2017-02-21T04:14:15.093Z,1000.51
2017-02-21T04:15:28.142Z,1000.42
2017-02-21T04:16:41.263Z,1000.44
2017-02-21T04:17:54.309Z,1000.4
2017-02-21T04:19:07.405Z,1000.49
2017-02-21T04:20:20.483Z,1000.4
2017-02-21T04:21:33.151Z,1000.45
2017-02-21T04:22:46.215Z,1000.48
2017-02-21T04:23:59.288Z,1000.42
2017-02-21T04:25:12.020Z,1000.42
2017-02-21T04:26:25.084Z,1000.39
2017-02-21T04:27:38.160Z,1000.38
2017-02-21T04:28:50.857Z,1000.38
2017-02-21T04:30:03.940Z,1000.34
2017-02-21T04:31:16.621Z,1000.33
2017-02-21T04:32:29.339Z,1000.41
2017-02-21T04:33:42.414Z,1000.44
2017-02-21T04:34:55.477Z,1000.48
2017-02-21T04:36:08.154Z,1000.49
2017-02-21T04:37:21.217Z,1000.57
2017-02-21T04:38:34.248Z,1000.59
2017-02-21T04:39:47.323Z,1000.59
2017-02-21T04:40:59.989Z,1000.57
2017-02-21T04:42:13.050Z,1000.55
2017-02-21T04:43:25.752Z,1000.58
2017-02-21T04:44:38.803Z,1000.55
2017-02-21T04:45:51.876Z,1000.54
2017-02-21T04:47:04.966Z,1000.56
2017-02-21T04:48:18.028Z,1000.58
2017-02-21T04:49:30.706Z,1000.51
2017-02-21T04:50:43.408Z,1000.6
2017-02-21T04:51:56.469Z,1000.58
2017-02-21T04:53:09.548Z,1000.6
2017-02-21T04:54:22.643Z,1000.61
2017-02-21T04:55:35.711Z,1000.66
2017-02-21T04:56:48.401Z,1000.66
2017-02-21T04:58:01.103Z,1000.63
2017-02-21T04:59:14.178Z,1000.66
2017-02-21T05:00:27.269Z,1000.65
2017-02-21T05:01:40.361Z,1000.63
2017-02-21T05:02:53.066Z,1000.65
2017-02-21T05:04:06.112Z,1000.61
2017-02-21T05:05:19.199Z,1000.61
2017-02-21T05:06:32.333Z,1000.49
2017-02-21T05:07:45.448Z,1000.51
2017-02-21T05:08:58.124Z,1000.48
2017-02-21T05:10:11.192Z,1000.48
2017-02-21T05:11:24.274Z,1000.51
2017-02-21T05:12:37.360Z,1000.52
2017-02-21T05:13:50.442Z,1000.47
2017-02-21T05:15:03.497Z,1000.39
2017-02-21T05:16:16.171Z,1000.39
2017-02-21T05:17:29.240Z,1000.4
2017-02-21T05:18:41.914Z,1000.4
2017-02-21T05:19:54.613Z,1000.37
2017-02-21T05:21:07.302Z,1000.38
2017-02-21T05:22:19.953Z,1000.37
2017-02-21T05:23:33.017Z,1000.35
2017-02-21T05:24:46.096Z,1000.42
2017-02-21T05:25:59.166Z,1000.44
2017-02-21T05:27:11.875Z,1000.43
2017-02-21T05:28:24.976Z,1000.42
2017-02-21T05:29:37.619Z,1000.41
2017-02-21T05:30:50.746Z,1000.45
2017-02-21T05:32:03.861Z,1000.5
2017-02-21T05:33:16.551Z,1000.46
2017-02-21T05:34:29.606Z,1000.53
2017-02-21T05:35:42.678Z,1000.51
2017-02-21T05:36:55.330Z,1000.48
2017-02-21T05:38:07.617Z,1000.38
2017-02-21T05:39:20.691Z,1000.48
2017-02-21T05:40:33.779Z,1000.45
2017-02-21T05:41:46.886Z,1000.53
2017-02-21T05:42:59.955Z,1000.53
2017-02-21T05:44:13.040Z,1000.47
2017-02-21T05:45:26.121Z,1000.44
2017-02-21T05:46:39.194Z,1000.5
2017-02-21T05:47:52.560Z,1000.47
2017-02-21T05:49:05.629Z,1000.45
2017-02-21T05:50:18.735Z,1000.43
2017-02-21T05:51:31.799Z,1000.41
2017-02-21T05:52:44.872Z,1000.43
2017-02-21T05:53:57.939Z,1000.39
2017-02-21T05:55:10.988Z,1000.4
2017-02-21T05:56:24.036Z,1000.4
2017-02-21T05:57:37.123Z,1000.45
2017-02-21T05:58:49.825Z,1000.42
2017-02-21T06:00:02.888Z,1000.37
2017-02-21T06:01:15.606Z,1000.42
2017-02-21T06:02:28.735Z,1000.42
2017-02-21T06:03:41.785Z,1000.49
2017-02-21T06:04:54.859Z,1000.51
2017-02-21T06:06:07.939Z,1000.51
2017-02-21T06:07:21.075Z,1000.55
2017-02-21T06:08:34.146Z,1000.54
2017-02-21T06:09:47.234Z,1000.58
2017-02-21T06:10:59.884Z,1000.59
2017-02-21T06:12:12.956Z,1000.61
2017-02-21T06:13:26.029Z,1000.6
2017-02-21T06:14:39.093Z,1000.58
2017-02-21T06:15:51.786Z,1000.61
2017-02-21T06:17:04.813Z,1000.6
2017-02-21T06:18:17.881Z,1000.6
2017-02-21T06:19:30.927Z,1000.59
2017-02-21T06:20:44.257Z,1000.63
2017-02-21T06:21:57.322Z,1000.59
2017-02-21T06:23:10.390Z,1000.58
2017-02-21T06:24:23.414Z,1000.5
2017-02-21T06:25:36.506Z,1000.5
2017-02-21T06:26:49.570Z,1000.56
2017-02-21T06:28:02.644Z,1000.5
2017-02-21T06:29:15.321Z,1000.51
2017-02-21T06:30:28.393Z,1000.54
2017-02-21T06:31:41.443Z,1000.51
2017-02-21T06:32:54.510Z,1000.48
2017-02-21T06:34:07.203Z,1000.48
2017-02-21T06:35:20.351Z,1000.45
2017-02-21T06:36:33.402Z,1000.4
2017-02-21T06:37:46.518Z,1000.36
2017-02-21T06:38:59.614Z,1000.32
2017-02-21T06:40:12.681Z,1000.29
2017-02-21T06:41:25.764Z,1000.3
2017-02-21T06:42:38.473Z,1000.28
2017-02-21T06:43:50.797Z,1000.4
2017-02-21T06:45:03.846Z,1000.53
2017-02-21T06:46:16.490Z,1000.53
2017-02-21T06:47:29.540Z,1000.55
2017-02-21T06:48:42.247Z,1000.55
2017-02-21T06:49:54.941Z,1000.6
2017-02-21T06:51:07.993Z,1000.65
2017-02-21T06:52:20.290Z,1000.62
2017-02-21T06:53:33.383Z,1000.6
2017-02-21T06:54:46.536Z,1000.63
2017-02-21T06:55:59.612Z,1000.64
2017-02-21T06:57:12.695Z,1000.64
2017-02-21T06:58:25.373Z,1000.68
2017-02-21T06:59:38.446Z,1000.65
2017-02-21T07:00:51.514Z,1000.6
2017-02-21T07:02:04.636Z,1000.57
2017-02-21T07:03:17.325Z,1000.54
2017-02-21T07:04:30.392Z,1000.58
2017-02-21T07:05:43.466Z,1000.5
2017-02-21T07:06:56.568Z,1000.48
2017-02-21T07:08:09.641Z,1000.49
2017-02-21T07:09:22.333Z,1000.48
2017-02-21T07:10:35.007Z,1000.57
2017-02-21T07:11:48.095Z,1000.61
2017-02-21T07:13:01.226Z,1000.65
2017-02-21T07:14:13.923Z,1000.71
2017-02-21T07:15:26.963Z,1000.7
2017-02-21T07:16:39.608Z,1000.65
2017-02-21T07:17:52.296Z,1000.67
2017-02-21T07:19:05.368Z,1000.69
2017-02-21T07:20:18.075Z,1000.6
2017-02-21T07:21:31.173Z,1000.55
2017-02-21T07:22:43.856Z,1000.46
2017-02-21T07:23:56.517Z,1000.4
2017-02-21T07:25:09.576Z,1000.39
2017-02-21T07:26:21.880Z,1000.3
2017-02-21T07:27:34.964Z,1000.33
2017-02-21T07:28:47.620Z,1000.38
2017-02-21T07:30:00.335Z,1000.45
2017-02-21T07:31:13.036Z,1000.49
2017-02-21T07:32:25.730Z,1000.42
2017-02-21T07:33:38.762Z,1000.5
2017-02-21T07:34:51.839Z,1000.52
2017-02-21T07:36:04.939Z,1000.52
2017-02-21T07:37:17.994Z,1000.54
2017-02-21T07:38:30.706Z,1000.48
2017-02-21T07:39:43.797Z,1000.56
2017-02-21T07:40:56.454Z,1000.52
2017-02-21T07:42:09.772Z,1000.51
2017-02-21T07:43:22.896Z,1000.48
2017-02-21T07:44:35.969Z,1000.53
2017-02-21T07:45:48.259Z,1000.52
2017-02-21T07:47:01.334Z,1000.48
2017-02-21T07:48:14.429Z,1000.49
2017-02-21T07:49:27.153Z,1000.47
2017-02-21T07:50:40.223Z,1000.43
2017-02-21T07:51:53.290Z,1000.39
2017-02-21T07:53:05.563Z,1000.41
2017-02-21T07:54:18.635Z,1000.42
2017-02-21T07:55:31.680Z,1000.42
2017-02-21T07:56:44.752Z,1000.47
2017-02-21T07:57:57.040Z,1000.43
2017-02-21T07:59:09.742Z,1000.53
2017-02-21T08:00:22.087Z,1000.48
2017-02-21T08:01:35.197Z,1000.51
2017-02-21T08:02:47.861Z,1000.51
2017-02-21T08:04:00.553Z,1000.58
2017-02-21T08:05:12.845Z,1000.57
2017-02-21T08:06:25.911Z,1000.61
2017-02-21T08:07:38.591Z,1000.6
2017-02-21T08:08:51.710Z,1000.59
2017-02-21T08:10:04.807Z,1000.62
2017-02-21T08:11:17.894Z,1000.66
2017-02-21T08:12:30.995Z,1000.66
2017-02-21T08:13:43.683Z,1000.67
2017-02-21T08:14:56.381Z,1000.7
2017-02-21T08:16:09.453Z,1000.67
2017-02-21T08:17:22.157Z,1000.68
2017-02-21T08:18:35.266Z,1000.68
2017-02-21T08:19:47.947Z,1000.63
2017-02-21T08:21:01.042Z,1000.63
2017-02-21T08:22:14.111Z,1000.71
2017-02-21T08:23:26.782Z,1000.72
2017-02-21T08:24:39.835Z,1000.69
2017-02-21T08:25:52.551Z,1000.71
2017-02-21T08:27:05.215Z,1000.73
2017-02-21T08:28:18.316Z,1000.7
2017-02-21T08:29:31.387Z,1000.66
2017-02-21T08:30:44.086Z,1000.71
2017-02-21T08:31:57.197Z,1000.66
2017-02-21T08:33:10.344Z,1000.63
2017-02-21T08:34:22.997Z,1000.66
2017-02-21T08:35:35.710Z,1000.71
2017-02-21T08:36:48.016Z,1000.69
2017-02-21T08:38:01.099Z,1000.77
2017-02-21T08:39:14.172Z,1000.76
2017-02-21T08:40:27.252Z,1000.7
2017-02-21T08:41:40.324Z,1000.72
2017-02-21T08:42:53.398Z,1000.71
2017-02-21T08:44:06.462Z,1000.68
2017-02-21T08:45:19.527Z,1000.59
2017-02-21T08:46:32.595Z,1000.59
2017-02-21T08:47:45.647Z,1000.55
2017-02-21T08:48:58.389Z,1000.59
2017-02-21T08:50:11.471Z,1000.64
2017-02-21T08:51:24.139Z,1000.69
2017-02-21T08:52:37.234Z,1000.75
2017-02-21T08:53:49.530Z,1000.68
2017-02-21T08:55:02.252Z,1000.71
2017-02-21T08:56:15.293Z,1000.7
2017-02-21T08:57:28.347Z,1000.74
2017-02-21T08:58:41.415Z,1000.78
2017-02-21T08:59:54.485Z,1000.88
2017-02-21T09:01:07.593Z,1000.89
2017-02-21T09:02:20.672Z,1000.81
2017-02-21T09:03:33.343Z,1000.83
2017-02-21T09:04:46.414Z,1000.79
2017-02-21T09:05:59.481Z,1000.74
2017-02-21T09:07:11.812Z,1000.79
2017-02-21T09:08:24.519Z,1000.77
2017-02-21T09:09:37.198Z,1000.7
2017-02-21T09:10:50.288Z,1000.85
2017-02-21T09:12:02.982Z,1000.94
2017-02-21T09:13:15.261Z,1000.92
2017-02-21T09:14:28.311Z,1001
2017-02-21T09:15:41.357Z,1001.04
2017-02-21T09:16:54.432Z,1001.02
2017-02-21T09:18:07.552Z,1001.13
2017-02-21T09:19:20.617Z,1001.07
2017-02-21T09:20:33.306Z,1001.16
2017-02-21T09:21:46.031Z,1001.18
2017-02-21T09:22:59.106Z,1001.19
2017-02-21T09:24:12.165Z,1001.12
2017-02-21T09:25:25.248Z,1001.12
2017-02-21T09:26:38.357Z,1001.15
2017-02-21T09:27:51.435Z,1001.18
2017-02-21T09:29:04.515Z,1001.17
2017-02-21T09:30:17.222Z,1001.22
2017-02-21T09:31:30.299Z,1001.29
2017-02-21T09:32:43.364Z,1001.3
2017-02-21T09:33:56.435Z,1001.24
2017-02-21T09:35:09.135Z,1001.3
2017-02-21T09:36:22.241Z,1001.39
2017-02-21T09:37:34.929Z,1001.29
2017-02-21T09:38:47.577Z,1001.38
2017-02-21T09:40:00.653Z,1001.44
2017-02-21T09:41:12.643Z,1001.51
2017-02-21T09:42:25.760Z,1001.57
2017-02-21T09:43:38.808Z,1001.54
2017-02-21T09:44:51.876Z,1001.62
2017-02-21T09:46:04.565Z,1001.58
2017-02-21T09:47:17.296Z,1001.59
2017-02-21T09:48:30.364Z,1001.65
2017-02-21T09:49:43.056Z,1001.65
2017-02-21T09:50:55.356Z,1001.67
2017-02-21T09:52:08.419Z,1001.75
2017-02-21T09:53:21.478Z,1001.8
2017-02-21T09:54:34.548Z,1001.7
2017-02-21T09:55:47.643Z,1001.92
2017-02-21T09:57:00.311Z,1001.95
2017-02-21T09:58:12.884Z,1001.89
2017-02-21T09:59:25.944Z,1001.82
2017-02-21T10:00:39.007Z,1001.86
2017-02-21T10:01:51.314Z,1001.87
2017-02-21T10:03:04.430Z,1001.82
2017-02-21T10:04:17.127Z,1001.86
2017-02-21T10:05:30.181Z,1001.96
2017-02-21T10:06:42.857Z,1001.95
2017-02-21T10:07:55.968Z,1001.95
2017-02-21T10:09:08.290Z,1002
2017-02-21T10:10:21.393Z,1002.02
2017-02-21T10:11:34.081Z,1002.11
2017-02-21T10:12:46.759Z,1002.02
2017-02-21T10:13:59.445Z,1002.16
2017-02-21T10:15:12.516Z,1002.22
2017-02-21T10:16:25.613Z,1002.16
2017-02-21T10:17:38.320Z,1002.17
2017-02-21T10:18:51.388Z,1002.23
2017-02-21T10:20:04.074Z,1002.23
2017-02-21T10:21:16.805Z,1002.19
2017-02-21T10:22:29.479Z,1002.24
2017-02-21T10:23:42.537Z,1002.32
2017-02-21T10:24:55.215Z,1002.26
2017-02-21T10:26:07.912Z,1002.37
2017-02-21T10:27:21.011Z,1002.37
2017-02-21T10:28:34.103Z,1002.31
2017-02-21T10:29:47.155Z,1002.3
2017-02-21T10:31:00.250Z,1002.5
2017-02-21T10:32:12.542Z,1002.53
2017-02-21T10:33:25.243Z,1002.59
2017-02-21T10:34:38.336Z,1002.57
2017-02-21T10:35:51.404Z,1002.6
2017-02-21T10:37:04.454Z,1002.57
2017-02-21T10:38:17.124Z,1002.62
2017-02-21T10:39:30.224Z,1002.61
2017-02-21T10:40:43.312Z,1002.55
2017-02-21T10:41:56.007Z,1002.64
2017-02-21T10:43:09.059Z,1002.42
2017-02-21T10:44:20.971Z,1002.58
2017-02-21T10:45:34.072Z,1002.38
2017-02-21T10:46:46.744Z,1002.5
2017-02-21T10:47:59.456Z,1002.57
2017-02-21T10:49:12.533Z,1002.53
2017-02-21T10:50:25.236Z,1002.56
2017-02-21T10:51:38.296Z,1002.55
2017-02-21T10:52:51.376Z,1002.5
2017-02-21T10:54:04.413Z,1002.47
2017-02-21T10:55:17.094Z,1002.5
2017-02-21T10:56:30.162Z,1002.61
2017-02-21T10:57:43.284Z,1002.54
2017-02-21T10:58:56.352Z,1002.23
2017-02-21T11:00:09.456Z,1002.34
2017-02-21T11:01:22.598Z,1002.35
2017-02-21T11:02:35.718Z,1002.35
2017-02-21T11:03:48.790Z,1002.35
2017-02-21T11:05:01.865Z,1002.46
2017-02-21T11:06:14.947Z,1002.4
2017-02-21T11:07:27.244Z,1002.52
2017-02-21T11:08:39.926Z,1002.47
2017-02-21T11:09:52.596Z,1002.39
2017-02-21T11:11:04.913Z,1002.4
2017-02-21T11:12:17.241Z,1002.31
2017-02-21T11:13:29.928Z,1002.46
2017-02-21T11:14:43.016Z,1002.54
2017-02-21T11:15:56.074Z,1002.47
2017-02-21T11:17:08.370Z,1002.61
2017-02-21T11:18:20.662Z,1002.61
2017-02-21T11:19:33.754Z,1002.59
2017-02-21T11:20:46.807Z,1002.62
2017-02-21T11:21:59.896Z,1002.71
2017-02-21T11:23:12.174Z,1002.69
2017-02-21T11:24:24.845Z,1002.58
2017-02-21T11:25:37.896Z,1002.61
2017-02-21T11:26:51.038Z,1002.57
2017-02-21T11:28:03.757Z,1002.62
2017-02-21T11:29:16.452Z,1002.63
2017-02-21T11:30:29.541Z,1002.63
2017-02-21T11:31:42.617Z,1002.61
2017-02-21T11:32:55.670Z,1002.72
2017-02-21T11:34:08.760Z,1002.71
2017-02-21T11:35:21.428Z,1002.64
2017-02-21T11:36:34.485Z,1002.66
2017-02-21T11:37:47.564Z,1002.64
2017-02-21T11:39:00.273Z,1002.71
2017-02-21T11:40:12.943Z,1002.71
2017-02-21T11:41:26.035Z,1002.75
2017-02-21T11:42:39.084Z,1002.71
2017-02-21T11:43:51.780Z,1002.81
2017-02-21T11:45:04.851Z,1002.89
2017-02-21T11:46:17.145Z,1002.79
2017-02-21T11:47:29.442Z,1002.81
2017-02-21T11:48:42.165Z,1002.77
2017-02-21T11:49:55.237Z,1002.78
2017-02-21T11:51:07.954Z,1002.8
2017-02-21T11:52:20.226Z,1002.75
2017-02-21T11:53:32.878Z,1002.66
2017-02-21T11:54:45.944Z,1002.72
2017-02-21T11:55:59.036Z,1002.7
2017-02-21T11:57:12.115Z,1002.89
2017-02-21T11:58:25.158Z,1002.72
2017-02-21T11:59:38.258Z,1002.69
2017-02-21T12:00:51.325Z,1002.82
2017-02-21T12:02:03.999Z,1002.91
2017-02-21T12:03:17.015Z,1002.96
2017-02-21T12:04:30.091Z,1002.91
2017-02-21T12:05:42.778Z,1002.9
2017-02-21T12:06:55.849Z,1002.82
2017-02-21T12:08:08.937Z,1002.87
2017-02-21T12:09:21.270Z,1002.88
2017-02-21T12:10:34.379Z,1002.73
2017-02-21T12:11:47.415Z,1002.9
2017-02-21T12:13:00.086Z,1002.9
2017-02-21T12:14:13.155Z,1003
2017-02-21T12:15:26.195Z,1003
2017-02-21T12:16:38.869Z,1003.06
2017-02-21T12:17:51.198Z,1003.02
2017-02-21T12:19:03.907Z,1003.01
2017-02-21T12:20:16.997Z,1002.95
2017-02-21T12:21:29.679Z,1002.97
2017-02-21T12:22:42.376Z,1002.95
2017-02-21T12:23:55.446Z,1003.07
2017-02-21T12:25:08.535Z,1003.02
2017-02-21T12:26:20.862Z,1003.1
2017-02-21T12:27:33.161Z,1003.01
2017-02-21T12:28:46.254Z,1003.06
2017-02-21T12:29:58.931Z,1003.05
2017-02-21T12:31:11.634Z,1003.01
2017-02-21T12:32:24.330Z,1003.03
2017-02-21T12:33:37.041Z,1003.1
2017-02-21T12:34:50.133Z,1002.99
2017-02-21T12:36:03.204Z,1002.99
2017-02-21T12:37:15.150Z,1003.06
2017-02-21T12:38:27.847Z,1002.96
2017-02-21T12:39:40.889Z,1002.88
2017-02-21T12:40:53.959Z,1002.76
2017-02-21T12:42:06.659Z,1002.8
2017-02-21T12:43:19.708Z,1002.81
2017-02-21T12:44:32.836Z,1002.72
2017-02-21T12:45:45.920Z,1002.7
2017-02-21T12:46:58.989Z,1002.7
2017-02-21T12:48:11.686Z,1002.65
2017-02-21T12:49:24.753Z,1002.67
2017-02-21T12:50:37.857Z,1002.76
2017-02-21T12:51:50.548Z,1002.86
2017-02-21T12:53:03.286Z,1002.9
2017-02-21T12:54:15.595Z,1002.91
2017-02-21T12:55:28.296Z,1002.99
2017-02-21T12:56:41.375Z,1003.1
2017-02-21T12:57:54.448Z,1003.19
2017-02-21T12:59:07.169Z,1003.35
2017-02-21T13:00:19.849Z,1003.12
2017-02-21T13:01:32.583Z,1003.02
2017-02-21T13:02:45.645Z,1003.07
2017-02-21T13:03:58.714Z,1003.17
2017-02-21T13:05:11.788Z,1003.24
2017-02-21T13:06:24.891Z,1003.07
2017-02-21T13:07:37.995Z,1003.19
2017-02-21T13:08:51.087Z,1003.13
2017-02-21T13:10:04.168Z,1003.22
2017-02-21T13:11:16.853Z,1003.1
2017-02-21T13:12:29.945Z,1003.12
2017-02-21T13:13:43.018Z,1003.18
2017-02-21T13:14:56.104Z,1002.98
2017-02-21T13:16:09.224Z,1003.16
2017-02-21T13:17:21.932Z,1003.1
2017-02-21T13:18:33.857Z,1003.01
2017-02-21T13:19:46.808Z,1002.97
2017-02-21T13:20:59.867Z,1003.09
2017-02-21T13:22:12.550Z,1003.07
2017-02-21T13:23:25.639Z,1003.19
2017-02-21T13:24:38.333Z,1003.13
2017-02-21T13:25:51.384Z,1003.17
2017-02-21T13:27:04.437Z,1003.19
2017-02-21T13:28:16.753Z,1003.37
2017-02-21T13:29:29.820Z,1003.22
2017-02-21T13:30:42.487Z,1003.31
2017-02-21T13:31:55.191Z,1003.39
2017-02-21T13:33:07.879Z,1003.34
2017-02-21T13:34:20.557Z,1003.21
2017-02-21T13:35:32.880Z,1003.36
2017-02-21T13:36:45.972Z,1003.43
2017-02-21T13:37:58.266Z,1003.25
2017-02-21T13:39:10.956Z,1003.11
2017-02-21T13:40:24.015Z,1003.3
2017-02-21T13:41:37.108Z,1003.27
2017-02-21T13:42:50.205Z,1003.21
2017-02-21T13:44:02.921Z,1003.26
2017-02-21T13:45:15.618Z,1003.34
2017-02-21T13:46:28.290Z,1003.32
2017-02-21T13:47:41.383Z,1003.28
2017-02-21T13:48:54.454Z,1003.25
2017-02-21T13:50:07.180Z,1003.21
2017-02-21T13:51:19.846Z,1003.19
2017-02-21T13:52:32.169Z,1003.18
2017-02-21T13:53:45.287Z,1003.1
2017-02-21T13:54:57.579Z,1003.12
2017-02-21T13:56:09.882Z,1003.15
2017-02-21T13:57:22.991Z,1003.07
2017-02-21T13:58:36.098Z,1003.15
2017-02-21T13:59:49.183Z,1003.23
2017-02-21T14:01:02.259Z,1003.24
2017-02-21T14:02:14.942Z,1003.38
2017-02-21T14:03:28.029Z,1003.28
2017-02-21T14:04:40.718Z,1003.34
2017-02-21T14:05:52.521Z,1003.34
2017-02-21T14:07:05.587Z,1003.25
2017-02-21T14:08:17.912Z,1003.24
2017-02-21T14:09:30.962Z,1003.26
2017-02-21T14:10:43.685Z,1003.11
2017-02-21T14:11:56.368Z,1003.13
2017-02-21T14:13:09.422Z,1003.17
2017-02-21T14:14:22.471Z,1003.08
2017-02-21T14:15:35.137Z,1003.11
2017-02-21T14:16:47.813Z,1003.15
2017-02-21T14:18:00.884Z,1003.13
2017-02-21T14:19:13.568Z,1003.15
2017-02-21T14:20:26.627Z,1003.14
2017-02-21T14:21:39.670Z,1003.22
2017-02-21T14:22:52.367Z,1003.15
2017-02-21T14:24:05.418Z,1003.23
2017-02-21T14:25:17.733Z,1003.2
2017-02-21T14:26:30.855Z,1003.18
2017-02-21T14:27:43.896Z,1003.3
2017-02-21T14:28:56.947Z,1003.34
2017-02-21T14:30:10.010Z,1003.33
2017-02-21T14:31:23.085Z,1003.31
2017-02-21T14:32:35.730Z,1003.29
2017-02-21T14:33:48.421Z,1003.33
2017-02-21T14:35:01.489Z,1003.38
2017-02-21T14:36:14.538Z,1003.33
2017-02-21T14:37:27.615Z,1003.26
2017-02-21T14:38:40.690Z,1003.23
2017-02-21T14:39:53.735Z,1003.24
2017-02-21T14:41:06.443Z,1003.26
2017-02-21T14:42:19.125Z,1003.25
2017-02-21T14:43:32.197Z,1003.26
2017-02-21T14:44:45.236Z,1003.2
2017-02-21T14:45:57.930Z,1003.28
2017-02-21T14:47:10.247Z,1003.3